< Typhoon 201926 2019 Season Typhoon 201928 >
Typhoon 201927 (FUNG-WONG)
General InformationDetailed Track InformationTrack Information on Google MapsForecast History on Google MapsAccess Analytics MapList of All Images || NewsDisaster Info.WeblogTrackbackTyphoon FrontTwiphoonTyphoon Now!Typhoon ImaginationJMA Disaster Info. XMLResourceGoogle EarthGE AnimationAtom FeedGeoJSON
Detalied Best Track Wind (Time Zone = UTC)
Year Month Day Hour Lat. Long. Wind (kt) Gust (kt) Direc. of Major Storm Axis Radius of Major Storm Axis (nm) Radius of Minor Storm Axis (nm) Direc. of Major Gale Axis Radius of Major Gale Axis (nm) Radius of Minor Gale Axis (nm) Image
2019 11 19 00 11.5 132.5 30 45 - - - - - - Image
2019 11 19 03 11.9 131.2 30 45 - - - - - - Image
2019 11 19 06 12.9 130.7 30 45 - - - - - - Image
2019 11 19 09 14.1 130.4 30 45 - - - - - - Image
2019 11 19 12 14.3 129.6 30 45 - - - - - - Image
2019 11 19 15 15.1 129.1 30 45 - - - - - - Image
2019 11 19 18 15.3 128.8 30 45 - - - - - - Image
2019 11 19 21 15.6 128.8 30 45 - - - - - - Image
2019 11 20 00 16.1 128.2 35 50 - - - symmetric 100 100 Image
2019 11 20 03 17.0 127.7 35 50 - - - symmetric 120 120 Image
2019 11 20 06 17.6 127.2 35 50 - - - symmetric 120 120 Image
2019 11 20 09 18.3 126.7 35 50 - - - symmetric 120 120 Image
2019 11 20 12 19.0 126.0 40 60 - - - symmetric 120 120 Image
2019 11 20 15 19.9 125.4 45 65 - - - symmetric 120 120 Image
2019 11 20 18 20.0 125.3 50 70 - - - symmetric 150 150 Image
2019 11 20 21 20.0 125.3 50 70 - - - symmetric 150 150 Image
2019 11 21 00 20.2 125.0 55 80 symmetric 60 60 symmetric 150 150 Image
2019 11 21 03 20.3 124.6 55 80 symmetric 40 40 NE 180 150 Image
2019 11 21 06 20.5 124.4 55 80 symmetric 40 40 NE 180 150 Image
2019 11 21 09 20.9 124.4 55 80 symmetric 40 40 NE 180 150 Image
2019 11 21 12 21.3 124.3 55 80 symmetric 40 40 NE 180 150 Image
2019 11 21 15 21.7 124.3 55 80 symmetric 40 40 NE 180 150 Image
2019 11 21 18 22.2 124.4 50 70 - - - symmetric 150 150 Image
2019 11 21 21 22.6 124.5 50 70 - - - symmetric 150 150 Image
2019 11 22 00 22.9 125.0 50 70 - - - E 120 90 Image
2019 11 22 03 23.4 125.2 50 70 - - - E 120 90 Image
2019 11 22 06 23.7 125.4 45 65 - - - symmetric 60 60 Image
2019 11 22 09 23.7 125.9 35 50 - - - symmetric 40 40 Image
2019 11 22 12 24.3 125.7 35 50 - - - symmetric 40 40 Image
2019 11 22 15 24.7 125.7 35 50 - - - SE 40 30 Image
2019 11 22 18 25.0 126.0 0 0 - - - - - - Image
Japan Meteorological Agency Best Track Data | Correction Date : 2019-11-22
< Typhoon 201926 2019 Season Typhoon 201928 >

Help